Airport View

Enter AWOS ICAO identifier for current METAR.

ex. KFNL

K5SM 251655Z AUTO 24015G25KT 1/2SM SN OVC002 M01/M01 A2981 RMK AO2

25 Oct 2020 17:17

Frequency: 126.075

Phone: 970-384-3380

Other Area AWOS: KRIL - KEGE - KASE - KEEO

TAF KRIL 251124Z 2512/2612 28010KT P6SM SCT050 BKN080 FM251600 30011KT 6SM -SHSNRA BR SCT045 OVC060 FM251700 30011KT 5SM -SHSN BR SCT030 OVC050 FM252100 31013G21KT 3SM -SN BR SCT010 OVC020 FM252300 31012KT 1SM -SN BR SCT010 OVC020 FM260900 31008KT P6SM SCT020 OVC040